createdAt,value
2022-08-25T00:02:16.518Z,12.30
2022-08-25T00:05:22.317Z,11.75
2022-08-25T00:08:24.869Z,15.18
2022-08-25T00:11:30.020Z,17.48
2022-08-25T00:14:35.867Z,21.73
2022-08-25T00:17:39.489Z,22.83
2022-08-25T00:20:43.347Z,24.30
2022-08-25T00:23:51.660Z,27.55
2022-08-25T00:26:56.728Z,29.08
2022-08-25T00:30:00.234Z,26.67
2022-08-25T00:33:03.902Z,31.85
2022-08-25T00:36:08.101Z,26.48
2022-08-25T00:39:12.069Z,26.13
2022-08-25T00:42:15.982Z,27.83
2022-08-25T00:45:19.303Z,38.42
2022-08-25T00:48:21.817Z,33.47
2022-08-25T00:51:31.609Z,36.38
2022-08-25T00:54:39.028Z,37.15
2022-08-25T00:57:44.695Z,45.30
2022-08-25T01:00:50.067Z,31.90
2022-08-25T01:03:52.594Z,38.10
2022-08-25T01:06:58.368Z,37.00
2022-08-25T01:10:01.950Z,39.53
2022-08-25T01:13:16.492Z,33.10
2022-08-25T01:16:19.629Z,35.42
2022-08-25T01:19:22.770Z,41.97
2022-08-25T01:22:27.159Z,33.83
2022-08-25T01:25:40.193Z,38.95
2022-08-25T01:28:59.162Z,27.73
2022-08-25T01:32:04.569Z,24.90
2022-08-25T01:35:07.950Z,32.85
2022-08-25T01:38:12.988Z,32.25
2022-08-25T01:41:18.732Z,37.28
2022-08-25T01:44:21.600Z,54.95
2022-08-25T01:47:24.349Z,26.95
2022-08-25T01:50:26.937Z,40.47
2022-08-25T01:53:33.591Z,40.55
2022-08-25T01:56:36.633Z,51.03
2022-08-25T01:59:39.342Z,40.63
2022-08-25T02:02:44.030Z,43.95
2022-08-25T02:05:48.671Z,37.47
2022-08-25T02:08:53.859Z,58.65
2022-08-25T02:11:56.915Z,42.83
2022-08-25T02:14:59.514Z,35.35
2022-08-25T02:18:02.468Z,42.97
2022-08-25T02:21:05.115Z,37.55
2022-08-25T02:24:09.808Z,39.40
2022-08-25T02:27:12.399Z,31.73
2022-08-25T02:30:16.718Z,55.15
2022-08-25T02:33:19.506Z,41.88
2022-08-25T02:36:22.451Z,42.13
2022-08-25T02:39:26.307Z,43.05
2022-08-25T02:42:29.776Z,33.45
2022-08-25T02:45:32.922Z,34.97
2022-08-25T02:48:35.777Z,35.60
2022-08-25T02:51:38.289Z,48.45
2022-08-25T02:54:42.440Z,32.03
2022-08-25T02:57:45.024Z,42.85
2022-08-25T03:00:48.379Z,46.70
2022-08-25T03:03:52.085Z,39.00
2022-08-25T03:06:54.626Z,40.85
2022-08-25T03:09:58.435Z,52.35
2022-08-25T03:13:00.913Z,31.15
2022-08-25T03:16:06.128Z,36.60
2022-08-25T03:19:13.941Z,44.78
2022-08-25T03:22:16.393Z,69.28
2022-08-25T03:25:38.324Z,49.05
2022-08-25T03:28:41.645Z,48.35
2022-08-25T03:31:44.719Z,56.78
2022-08-25T03:34:47.360Z,52.03
2022-08-25T03:37:51.117Z,43.05
2022-08-25T03:40:55.285Z,60.55
2022-08-25T03:43:58.270Z,53.08
2022-08-25T03:47:00.730Z,60.88
2022-08-25T03:50:03.664Z,41.70
2022-08-25T03:53:06.133Z,44.42
2022-08-25T03:56:09.918Z,42.38
2022-08-25T03:59:13.237Z,41.53
2022-08-25T04:02:15.962Z,43.90
2022-08-25T04:05:20.192Z,40.67
2022-08-25T04:08:22.759Z,39.53
2022-08-25T04:11:28.548Z,48.72
2022-08-25T04:14:31.231Z,50.72
2022-08-25T04:17:34.012Z,41.38
2022-08-25T04:20:36.465Z,39.60
2022-08-25T04:23:40.613Z,42.25
2022-08-25T04:26:47.257Z,37.55
2022-08-25T04:29:49.721Z,38.50
2022-08-25T04:32:52.165Z,32.83
2022-08-25T04:35:55.140Z,42.42
2022-08-25T04:38:57.819Z,42.70
2022-08-25T04:42:02.256Z,40.17
2022-08-25T04:45:05.756Z,37.90
2022-08-25T04:48:09.923Z,35.88
2022-08-25T04:51:14.624Z,36.05
2022-08-25T04:54:21.614Z,39.10
2022-08-25T04:57:25.542Z,40.40
2022-08-25T05:00:28.077Z,31.55
2022-08-25T05:03:31.105Z,44.65
2022-08-25T05:06:33.900Z,52.80
2022-08-25T05:09:37.674Z,43.08
2022-08-25T05:12:41.458Z,47.20
2022-08-25T05:15:53.172Z,38.80
2022-08-25T05:18:56.540Z,43.65
2022-08-25T05:21:59.095Z,38.50
2022-08-25T05:25:01.558Z,44.40
2022-08-25T05:28:05.943Z,52.60
2022-08-25T05:31:09.859Z,40.22
2022-08-25T05:34:12.905Z,51.63
2022-08-25T05:37:15.358Z,44.28
2022-08-25T05:40:17.915Z,51.42
2022-08-25T05:43:21.753Z,56.42
2022-08-25T05:46:24.980Z,54.60
2022-08-25T05:49:27.850Z,54.78
2022-08-25T05:52:30.337Z,51.97
2022-08-25T05:55:32.820Z,57.75
2022-08-25T05:58:37.565Z,66.75
2022-08-25T06:01:57.700Z,59.13
2022-08-25T06:05:00.167Z,61.28
2022-08-25T06:08:02.749Z,68.85
2022-08-25T06:11:05.308Z,66.85
2022-08-25T06:14:10.841Z,65.25
2022-08-25T06:17:13.325Z,68.57
2022-08-25T06:20:18.814Z,70.32
2022-08-25T06:23:24.650Z,84.80
2022-08-25T06:26:27.231Z,74.72
2022-08-25T06:29:31.038Z,73.18
2022-08-25T06:32:34.171Z,79.70
2022-08-25T06:35:37.213Z,83.40
2022-08-25T06:38:39.703Z,79.65
2022-08-25T06:41:42.198Z,87.55
2022-08-25T06:44:46.074Z,81.30
2022-08-25T06:47:48.872Z,93.78
2022-08-25T06:50:51.388Z,96.72
2022-08-25T06:53:54.491Z,85.68
2022-08-25T06:56:56.952Z,89.07
2022-08-25T07:00:02.053Z,79.88
2022-08-25T07:03:04.987Z,83.22
2022-08-25T07:06:09.817Z,99.40
2022-08-25T07:09:13.023Z,91.10
2022-08-25T07:12:15.498Z,83.55
2022-08-25T07:15:20.697Z,79.82
2022-08-25T07:18:23.538Z,78.57
2022-08-25T07:21:31.248Z,82.30
2022-08-25T07:24:35.867Z,76.65
2022-08-25T07:27:39.099Z,81.10
2022-08-25T07:30:45.162Z,76.43
2022-08-25T07:34:11.922Z,79.38
2022-08-25T07:37:32.255Z,82.80
2022-08-25T07:40:43.065Z,77.50
2022-08-25T07:43:45.780Z,74.70
2022-08-25T07:46:50.548Z,70.95
2022-08-25T07:49:53.185Z,66.22
2022-08-25T07:52:57.293Z,65.68
2022-08-25T07:56:00.060Z,60.38
2022-08-25T07:59:02.607Z,58.08
2022-08-25T08:02:09.337Z,57.20
2022-08-25T08:05:21.662Z,49.55
2022-08-25T08:08:26.328Z,50.88
2022-08-25T08:11:30.979Z,60.72
2022-08-25T08:14:33.517Z,55.85
2022-08-25T08:17:37.457Z,64.75
2022-08-25T08:20:45.001Z,60.47
2022-08-25T08:23:48.472Z,55.08
2022-08-25T08:26:58.652Z,48.60
2022-08-25T08:30:01.687Z,44.05
2022-08-25T08:33:10.129Z,40.65
2022-08-25T08:36:14.263Z,44.72
2022-08-25T08:39:17.794Z,40.70
2022-08-25T08:42:42.896Z,44.85
2022-08-25T08:45:53.122Z,40.88
2022-08-25T08:49:02.750Z,40.20
2022-08-25T08:52:09.173Z,42.38
2022-08-25T08:55:24.346Z,34.00
2022-08-25T08:58:31.338Z,32.40
2022-08-25T09:01:45.724Z,27.33
2022-08-25T09:04:56.483Z,28.30
2022-08-25T09:08:06.259Z,25.50
2022-08-25T09:11:21.150Z,25.95
2022-08-25T09:14:39.835Z,23.58
2022-08-25T09:17:57.901Z,22.67
2022-08-25T09:21:09.551Z,20.23
2022-08-25T09:24:26.144Z,21.60
2022-08-25T09:27:39.223Z,20.08
2022-08-25T09:30:52.815Z,20.00
2022-08-25T09:33:58.728Z,14.85
2022-08-25T09:37:03.692Z,15.80
2022-08-25T09:40:09.353Z,16.67
2022-08-25T09:43:21.553Z,16.30
2022-08-25T09:46:26.924Z,17.63
2022-08-25T09:49:37.559Z,18.48
2022-08-25T09:52:44.414Z,14.38
2022-08-25T09:55:59.843Z,16.60
2022-08-25T09:59:21.765Z,14.43
2022-08-25T10:02:37.556Z,13.65
2022-08-25T10:05:59.721Z,16.60
2022-08-25T10:09:06.816Z,14.65
2022-08-25T10:12:21.151Z,19.02
2022-08-25T10:15:30.457Z,15.35
2022-08-25T10:18:33.316Z,11.30
2022-08-25T10:21:37.113Z,13.40
2022-08-25T10:24:44.239Z,15.23
2022-08-25T10:27:54.667Z,13.73
2022-08-25T10:31:03.835Z,14.25
2022-08-25T10:34:22.491Z,19.60
2022-08-25T10:37:34.462Z,12.35
2022-08-25T10:40:46.985Z,18.13
2022-08-25T10:43:58.908Z,10.48
2022-08-25T10:47:20.234Z,12.77
2022-08-25T10:50:34.489Z,11.07
2022-08-25T10:53:49.213Z,9.13
2022-08-25T10:57:04.269Z,17.55
2022-08-25T11:00:15.559Z,11.98
2022-08-25T11:03:44.526Z,13.27
2022-08-25T11:06:54.652Z,10.68
2022-08-25T11:10:03.529Z,14.17
2022-08-25T11:13:14.075Z,15.65
2022-08-25T11:16:21.286Z,11.53
2022-08-25T11:19:31.236Z,10.45
2022-08-25T11:22:43.842Z,13.88
2022-08-25T11:25:51.825Z,12.02
2022-08-25T11:29:02.586Z,11.38
2022-08-25T11:32:05.770Z,20.17
2022-08-25T11:35:12.280Z,9.73
2022-08-25T11:38:30.123Z,10.70
2022-08-25T11:41:40.246Z,14.93
2022-08-25T11:44:59.345Z,10.73
2022-08-25T11:48:18.889Z,13.65
2022-08-25T11:51:33.842Z,11.38
2022-08-25T11:54:44.181Z,15.10
2022-08-25T11:57:53.455Z,13.57
2022-08-25T12:00:59.582Z,10.45
2022-08-25T12:04:14.942Z,11.85
2022-08-25T12:07:29.471Z,14.90
2022-08-25T12:10:55.224Z,12.02
2022-08-25T12:14:15.045Z,9.85
2022-08-25T12:17:28.345Z,7.53
2022-08-25T12:21:10.405Z,11.13
2022-08-25T12:24:17.904Z,12.98
2022-08-25T12:27:26.981Z,10.30
2022-08-25T12:30:40.924Z,10.50
2022-08-25T12:33:56.908Z,15.18
2022-08-25T12:37:06.312Z,14.60
2022-08-25T12:40:24.724Z,10.88
2022-08-25T12:43:33.321Z,11.80
2022-08-25T12:46:40.469Z,9.77
2022-08-25T12:49:44.257Z,11.02
2022-08-25T12:52:46.942Z,11.88
2022-08-25T12:55:53.668Z,10.75
2022-08-25T12:59:12.258Z,11.90
2022-08-25T13:02:39.804Z,13.98
2022-08-25T13:06:12.912Z,10.85
2022-08-25T13:10:00.111Z,10.13
2022-08-25T13:13:07.876Z,13.48
2022-08-25T13:16:17.750Z,15.18
2022-08-25T13:19:21.265Z,17.20
2022-08-25T13:22:27.349Z,12.70
2022-08-25T13:25:34.588Z,10.30
2022-08-25T13:28:42.110Z,14.50
2022-08-25T13:31:57.457Z,8.50
2022-08-25T13:35:11.738Z,9.85
2022-08-25T13:38:20.154Z,11.07
2022-08-25T13:41:28.662Z,10.35
2022-08-25T13:44:35.979Z,12.48
2022-08-25T13:47:45.212Z,7.00
2022-08-25T13:50:52.070Z,11.88
2022-08-25T13:54:00.171Z,14.18
2022-08-25T13:57:18.641Z,12.70
2022-08-25T14:00:32.452Z,12.30
2022-08-25T14:03:37.346Z,9.55
2022-08-25T14:06:39.901Z,15.07
2022-08-25T14:09:49.155Z,12.05
2022-08-25T14:13:09.044Z,14.07
2022-08-25T14:16:15.596Z,13.05
2022-08-25T14:19:24.121Z,7.75
2022-08-25T14:22:27.532Z,9.93
2022-08-25T14:25:31.895Z,9.02
2022-08-25T14:28:34.648Z,7.82
2022-08-25T14:31:43.131Z,11.02
2022-08-25T14:34:46.670Z,16.95
2022-08-25T14:37:49.989Z,7.78
2022-08-25T14:40:54.108Z,7.63
2022-08-25T14:43:56.802Z,17.13
2022-08-25T14:47:01.948Z,13.13
2022-08-25T14:50:04.970Z,16.95
2022-08-25T14:53:10.186Z,11.77
2022-08-25T14:56:14.375Z,10.18
2022-08-25T14:59:16.958Z,12.95
2022-08-25T15:02:23.006Z,11.27
2022-08-25T15:05:33.072Z,11.18
2022-08-25T15:08:53.096Z,9.60
2022-08-25T15:11:57.954Z,10.48
2022-08-25T15:15:01.536Z,9.02
2022-08-25T15:18:04.871Z,10.25
2022-08-25T15:21:08.741Z,12.60
2022-08-25T15:24:12.679Z,11.68
2022-08-25T15:27:22.579Z,10.85
2022-08-25T15:30:30.930Z,11.32
2022-08-25T15:33:33.734Z,7.75
2022-08-25T15:36:37.152Z,14.00
2022-08-25T15:39:43.155Z,6.78
2022-08-25T15:42:48.470Z,12.95
2022-08-25T15:45:51.527Z,12.27
2022-08-25T15:52:02.224Z,13.98
2022-08-25T15:55:05.636Z,11.65
2022-08-25T15:58:10.320Z,12.63
2022-08-25T16:01:14.386Z,8.90
2022-08-25T16:04:16.853Z,10.13
2022-08-25T16:07:21.225Z,12.45
2022-08-25T16:10:25.129Z,12.10
2022-08-25T16:13:29.131Z,15.75
2022-08-25T16:16:32.989Z,9.48
2022-08-25T16:19:38.101Z,9.57
2022-08-25T16:22:40.796Z,15.05
2022-08-25T16:25:46.354Z,9.45
2022-08-25T16:28:50.634Z,12.85
2022-08-25T16:31:55.042Z,20.23
2022-08-25T16:34:58.781Z,13.18
2022-08-25T16:38:03.770Z,15.20
2022-08-25T16:41:08.794Z,15.82
2022-08-25T16:44:12.815Z,16.20
2022-08-25T16:47:17.829Z,17.98
2022-08-25T16:50:23.061Z,12.98
2022-08-25T16:53:43.582Z,15.25
2022-08-25T16:56:47.453Z,12.98
2022-08-25T16:59:59.944Z,12.60
2022-08-25T17:03:05.645Z,12.77
2022-08-25T17:06:08.736Z,14.77
2022-08-25T17:09:13.206Z,13.38
2022-08-25T17:12:15.851Z,11.00
2022-08-25T17:15:23.783Z,12.05
2022-08-25T17:18:26.245Z,12.35
2022-08-25T17:21:33.399Z,17.95
2022-08-25T17:24:36.400Z,9.55
2022-08-25T17:27:42.949Z,14.23
2022-08-25T17:30:46.905Z,11.63
2022-08-25T17:33:49.456Z,13.40
2022-08-25T17:36:53.191Z,19.67
2022-08-25T17:40:02.720Z,13.20
2022-08-25T17:43:05.877Z,17.20
2022-08-25T17:46:13.607Z,11.90
2022-08-25T17:49:17.264Z,21.80
2022-08-25T17:52:23.572Z,14.43
2022-08-25T17:55:28.468Z,14.10
2022-08-25T17:58:31.778Z,17.75
2022-08-25T18:01:40.289Z,13.63
2022-08-25T18:04:43.570Z,15.85
2022-08-25T18:07:46.017Z,17.48
2022-08-25T18:10:48.907Z,18.15
2022-08-25T18:13:52.346Z,11.82
2022-08-25T18:16:56.954Z,10.77
2022-08-25T18:19:59.437Z,17.05
2022-08-25T18:23:01.997Z,11.43
2022-08-25T18:26:06.694Z,13.07
2022-08-25T18:29:12.131Z,15.18
2022-08-25T18:32:16.436Z,16.30
2022-08-25T18:35:22.423Z,15.07
2022-08-25T18:38:46.465Z,17.75
2022-08-25T18:41:48.970Z,15.10
2022-08-25T18:44:51.429Z,10.70
2022-08-25T18:47:57.467Z,11.57
2022-08-25T18:51:01.703Z,11.98
2022-08-25T18:54:04.850Z,13.13
2022-08-25T18:57:08.834Z,11.65
2022-08-25T19:00:15.842Z,13.60
2022-08-25T19:03:23.272Z,14.95
2022-08-25T19:06:25.800Z,14.98
2022-08-25T19:09:28.478Z,10.90
2022-08-25T19:12:31.166Z,12.27
2022-08-25T19:15:40.883Z,15.85
2022-08-25T19:18:45.173Z,11.02
2022-08-25T19:21:48.362Z,9.80
2022-08-25T19:24:53.340Z,14.98
2022-08-25T19:27:58.453Z,10.63
2022-08-25T19:31:04.178Z,9.48
2022-08-25T19:34:10.912Z,13.82
2022-08-25T19:37:15.583Z,11.70
2022-08-25T19:40:21.624Z,13.75
2022-08-25T19:43:24.312Z,14.13
2022-08-25T19:46:33.030Z,10.95
2022-08-25T19:49:39.004Z,11.70
2022-08-25T19:52:44.600Z,13.98
2022-08-25T19:55:47.354Z,13.35
2022-08-25T19:58:50.001Z,11.90
2022-08-25T20:01:53.003Z,14.27
2022-08-25T20:04:59.302Z,14.07
2022-08-25T20:08:03.052Z,14.68
2022-08-25T20:11:05.594Z,10.90
2022-08-25T20:14:08.630Z,20.25
2022-08-25T20:17:14.436Z,8.98
2022-08-25T20:20:32.505Z,13.48
2022-08-25T20:23:54.756Z,17.65
2022-08-25T20:26:57.294Z,12.07
2022-08-25T20:29:59.820Z,14.30
2022-08-25T20:33:06.336Z,16.38
2022-08-25T20:36:15.142Z,10.48
2022-08-25T20:39:17.890Z,12.98
2022-08-25T20:42:20.809Z,14.48
2022-08-25T20:45:24.122Z,11.38
2022-08-25T20:48:27.511Z,11.57
2022-08-25T20:51:31.298Z,14.18
2022-08-25T20:54:34.555Z,17.27
2022-08-25T20:57:37.682Z,10.77
2022-08-25T21:00:42.209Z,13.73
2022-08-25T21:03:45.047Z,12.75
2022-08-25T21:06:49.580Z,13.63
2022-08-25T21:09:52.319Z,14.18
2022-08-25T21:12:55.260Z,11.32
2022-08-25T21:15:57.741Z,10.82
2022-08-25T21:19:00.388Z,15.60
2022-08-25T21:22:05.530Z,13.13
2022-08-25T21:25:09.638Z,12.60
2022-08-25T21:28:12.481Z,8.93
2022-08-25T21:31:19.101Z,13.95
2022-08-25T21:34:22.203Z,14.45
2022-08-25T21:37:27.302Z,12.85
2022-08-25T21:40:29.804Z,15.48
2022-08-25T21:43:32.318Z,14.65
2022-08-25T21:46:36.910Z,14.60
2022-08-25T21:49:39.434Z,15.13
2022-08-25T21:52:43.244Z,15.90
2022-08-25T21:55:45.701Z,12.82
2022-08-25T21:58:49.181Z,15.88
2022-08-25T22:01:52.938Z,15.15
2022-08-25T22:04:55.414Z,11.18
2022-08-25T22:07:59.785Z,16.13
2022-08-25T22:11:05.163Z,16.33
2022-08-25T22:14:07.925Z,19.27
2022-08-25T22:17:14.025Z,11.50
2022-08-25T22:20:19.606Z,16.17
2022-08-25T22:23:28.422Z,14.65
2022-08-25T22:26:33.405Z,12.93
2022-08-25T22:29:35.965Z,12.15
2022-08-25T22:32:38.424Z,17.33
2022-08-25T22:35:41.578Z,13.75
2022-08-25T22:38:45.580Z,18.60
2022-08-25T22:41:48.054Z,16.02
2022-08-25T22:44:50.528Z,14.95
2022-08-25T22:47:53.096Z,14.82
2022-08-25T22:50:55.549Z,16.77
2022-08-25T22:54:02.035Z,12.93
2022-08-25T22:57:07.158Z,14.77
2022-08-25T23:00:14.089Z,15.45
2022-08-25T23:03:16.801Z,13.88
2022-08-25T23:06:24.717Z,13.52
2022-08-25T23:09:28.924Z,18.60
2022-08-25T23:12:33.448Z,10.85
2022-08-25T23:15:35.908Z,14.85
2022-08-25T23:18:43.574Z,19.38
2022-08-25T23:22:04.795Z,18.88
2022-08-25T23:28:12.647Z,15.40
2022-08-25T23:31:15.625Z,13.40
2022-08-25T23:34:18.114Z,17.73
2022-08-25T23:37:20.579Z,21.15
2022-08-25T23:40:24.857Z,16.50
2022-08-25T23:43:27.472Z,19.27
2022-08-25T23:46:30.014Z,17.13
2022-08-25T23:49:32.631Z,19.85
2022-08-25T23:52:36.192Z,19.42
2022-08-25T23:55:52.815Z,13.65
2022-08-25T23:58:55.718Z,13.50
